Latest Weather Observations for Grafton Airport

IDN60801

Issued at 6:02 pm EDT Thursday 23 February 2017 (issued every 30 minutes, with the page automatically refreshed every 10 minutes)

About weather observations | Map of weather stations | Latest weather observations for NSW | Other Formats
Station Details ID: 058161 Name: GRAFTON AIRPORT AWS Lat: -29.76 Lon: 153.03 Height: 25.09 m
Data from the previous 72 hours. | See also: Recent months at Grafton Airport
Date/Time
EDT
Temp
°C
App
Temp
°C
Dew
Point
°C
Rel
Hum
%
Delta-T
°C
Wind Press
QNH
hPa
Press
MSL
hPa
Rain since
9am
mm
Dir  Spd
km/h
Gust
km/h
Spd
kts
Gust
kts
23/05:30pm 27.4 25.7 14.8 46 7.6 ESE 17 20 9 11 1018.3 1018.2 0.0
23/05:00pm 28.1 26.5 14.0 42 8.4 E 15 22 8 12 1018.2 1018.1 0.0
23/04:30pm 28.8 27.1 13.5 39 9.1 E 15 22 8 12 1018.1 1018.0 0.0
23/04:00pm 29.0 26.1 12.4 36 9.7 E 19 32 10 17 1018.1 1018.0 0.0
23/03:30pm 29.5 26.6 11.1 32 10.6 ENE 17 26 9 14 1018.0 1017.9 0.0
23/03:00pm 30.0 27.9 11.0 31 10.9 S 13 24 7 13 1018.3 1018.2 0.0
23/02:30pm 29.2 25.5 9.3 29 11.1 ESE 19 28 10 15 1018.6 1018.5 0.0
23/02:00pm 29.7 27.8 11.7 33 10.4 SE 13 20 7 11 1018.8 1018.7 0.0
23/01:30pm 29.0 27.8 12.8 36 9.5 SSE 11 24 6 13 1019.1 1019.0 0.0
23/01:00pm 28.8 28.3 13.9 40 8.9 W 9 20 5 11 1019.5 1019.4 0.0
23/12:30pm 28.9 28.3 14.7 42 8.6 SE 11 22 6 12 1019.7 1019.6 0.0
23/12:00pm 27.9 28.3 15.2 46 7.7 ESE 7 13 4 7 1019.8 1019.7 0.0
23/11:30am 26.7 27.0 15.1 49 7.0 SW 7 13 4 7 1020.2 1020.1 0.0
23/11:00am 26.4 27.6 15.8 52 6.5 S 4 7 2 4 1020.3 1020.2 0.0
23/10:30am 24.9 24.9 15.2 54 5.8 SW 9 15 5 8 1020.5 1020.4 0.0
23/10:00am 24.5 24.5 15.1 55 5.6 S 9 13 5 7 1020.8 1020.7 0.0
23/09:30am 24.2 24.9 17.0 64 4.4 S 9 11 5 6 1020.8 1020.7 0.0
23/09:00am 22.4 23.7 17.5 74 3.0 SSW 7 13 4 7 1020.8 1020.7 0.0
23/08:30am 21.1 21.7 16.9 77 2.6 SSW 9 13 5 7 1020.7 1020.6 0.0
23/08:00am 20.0 20.5 16.6 81 2.0 SSW 9 11 5 6 1020.4 1020.3 0.0
23/07:30am 19.2 20.3 17.0 87 1.3 SW 7 9 4 5 1020.2 1020.1 0.0
23/07:00am 17.6 18.4 16.3 92 0.8 SW 7 9 4 5 1019.9 1019.8 0.0
23/06:30am 17.6 18.5 16.1 91 0.9 SW 6 7 3 4 1019.6 1019.5 0.0
23/06:00am 17.5 18.1 15.7 89 1.1 SSW 7 7 4 4 1019.4 1019.3 0.0
23/05:30am 18.2 18.9 16.0 87 1.3 SSW 7 9 4 5 1019.2 1019.1 0.0
23/05:00am 18.9 19.6 16.1 84 1.7 SSW 7 9 4 5 1019.1 1019.0 0.0
23/04:30am 19.0 19.8 16.4 85 1.6 SSW 7 9 4 5 1019.2 1019.1 0.0
23/04:00am 18.8 19.7 16.2 85 1.5 SSW 6 9 3 5 1019.3 1019.2 0.0
23/03:30am 19.6 20.7 16.6 83 1.8 SSW 6 6 3 3 1019.3 1019.2 0.0
23/03:00am 19.3 20.3 16.3 83 1.8 SW 6 7 3 4 1019.5 1019.4 0.0
23/02:30am 20.3 21.3 16.3 78 2.4 SSW 6 7 3 4 1019.5 1019.4 0.0
23/02:00am 21.1 21.9 16.3 74 2.9 S 7 9 4 5 1019.8 1019.7 0.0
23/01:30am 21.1 22.2 16.5 75 2.8 SSW 6 7 3 4 1020.1 1020.0 0.0
23/01:00am 21.2 22.3 16.6 75 2.8 SSW 6 7 3 4 1020.3 1020.2 0.0
23/12:30am 21.2 22.3 16.6 75 2.8 SSW 6 9 3 5 1020.5 1020.4 0.0
23/12:00am 21.6 23.6 16.1 71 3.3 CALM 0 0 0 0 1020.6 1020.5 0.0
 
Date/Time
EDT
Temp
°C
App
Temp
°C
Dew
Point
°C
Rel
Hum
%
Delta-T
°C
Wind Press
QNH
hPa
Press
MSL
hPa
Rain since
9am
mm
Dir  Spd
km/h
Gust
km/h
Spd
kts
Gust
kts
22/11:30pm 21.8 24.1 16.7 73 3.1 CALM 0 0 0 0 1020.9 1020.8 0.0
22/11:00pm 22.0 24.2 16.5 71 3.3 CALM 0 0 0 0 1020.8 1020.7 0.0
22/10:30pm 22.0 24.2 16.5 71 3.3 CALM 0 0 0 0 1020.8 1020.7 0.0
22/10:00pm 22.2 24.3 16.2 69 3.6 CALM 0 0 0 0 1020.8 1020.7 0.0
22/09:30pm 22.9 23.8 16.0 65 4.2 SSE 6 6 3 3 1020.7 1020.6 0.0
22/09:00pm 23.6 24.5 16.1 62 4.5 SE 6 7 3 4 1020.4 1020.3 0.0
22/08:30pm 23.9 24.7 15.9 61 4.9 ESE 6 7 3 4 1020.2 1020.1 0.0
22/08:00pm 24.1 24.2 15.6 59 5.1 ESE 9 11 5 6 1019.9 1019.8 0.0
22/07:30pm 24.3 24.3 15.2 57 5.5 ESE 9 13 5 7 1019.7 1019.6 0.0
22/07:00pm 24.7 23.6 15.3 56 5.6 E 15 20 8 11 1019.3 1019.2 0.0
22/06:30pm 25.2 24.4 15.2 54 6.0 ESE 13 20 7 11 1019.0 1018.9 0.0
22/06:00pm 25.4 23.8 15.1 53 6.2 E 17 24 9 13 1019.1 1019.0 0.0
22/05:30pm 25.6 24.4 15.0 52 6.4 ESE 15 24 8 13 1018.9 1018.8 0.0
22/05:00pm 26.2 24.5 14.6 48 6.9 E 17 24 9 13 1018.9 1018.8 0.0
22/04:30pm 27.5 25.6 15.2 47 7.5 E 19 30 10 16 1018.8 1018.7 0.0
22/04:00pm 26.8 25.5 14.9 48 7.2 ESE 15 22 8 12 1018.9 1018.8 0.0
22/03:30pm 26.9 25.3 15.0 48 7.2 ESE 17 30 9 16 1019.1 1019.0 0.0
22/03:00pm 27.1 25.5 15.1 47 7.3 E 17 26 9 14 1019.1 1019.0 0.0
22/02:30pm 28.5 27.3 15.1 44 8.2 E 15 32 8 17 1019.5 1019.4 0.0
22/02:00pm 26.9 25.8 15.3 49 7.0 SE 15 24 8 13 1019.8 1019.7 0.0
22/01:30pm 27.3 24.9 14.3 45 7.8 SE 20 28 11 15 1020.1 1020.0 0.0
22/01:00pm 27.4 25.9 15.4 48 7.3 ESE 17 28 9 15 1020.2 1020.1 0.0
22/12:30pm 27.4 26.2 15.1 47 7.5 SE 15 24 8 13 1020.5 1020.4 0.0
22/12:00pm 27.0 26.2 15.1 48 7.2 E 13 19 7 10 1020.8 1020.7 0.0
22/11:30am 26.8 26.1 14.2 46 7.5 SE 11 20 6 11 1021.0 1020.9 0.0
22/11:00am 27.1 27.3 15.8 50 6.9 SE 9 19 5 10 1021.1 1021.0 0.0
22/10:30am 27.4 27.2 15.7 48 7.2 ENE 11 28 6 15 1021.3 1021.2 0.0
22/10:00am 25.2 24.9 15.5 55 5.9 E 11 17 6 9 1021.6 1021.5 0.0
22/09:30am 25.4 24.3 15.4 54 6.1 ESE 15 20 8 11 1021.5 1021.4 0.0
22/09:00am 25.2 25.3 16.4 58 5.4 SE 11 15 6 8 1021.4 1021.3 0.0
22/08:30am 23.5 24.8 17.5 69 3.7 S 7 9 4 5 1021.2 1021.1 0.0
22/08:00am 22.3 23.0 17.9 76 2.7 S 11 13 6 7 1021.1 1021.0 0.0
22/07:30am 21.0 22.5 18.0 83 1.9 SSW 7 11 4 6 1020.9 1020.8 0.0
22/07:00am 20.6 22.2 18.2 86 1.5 SSW 7 11 4 6 1020.6 1020.5 0.0
22/06:30am 20.4 22.1 18.0 86 1.5 SSW 6 7 3 4 1020.2 1020.1 0.0
22/06:00am 20.5 22.5 17.9 85 1.6 SW 4 7 2 4 1019.8 1019.7 0.0
22/05:30am 20.7 22.4 18.1 85 1.6 SSW 6 7 3 4 1019.5 1019.4 0.0
22/05:00am 20.6 22.0 17.8 84 1.7 SSW 7 9 4 5 1019.3 1019.2 0.0
22/04:30am 20.7 21.7 17.7 83 1.8 SSW 9 11 5 6 1019.3 1019.2 0.0
22/04:01am 20.6 21.6 17.8 84 1.7 SSW 9 9 5 5 1019.2 1019.1 0.0
22/04:00am 20.6 21.6 17.8 84 1.7 SSW 9 9 5 5 1019.2 1019.1 0.0
22/03:47am 20.4 21.8 17.8 85 1.6 SW 7 11 4 6 1019.1 1019.0 0.0
22/03:30am 20.4 21.9 18.0 86 1.5 SSW 7 11 4 6 1018.9 1018.8 0.0
22/03:00am 20.2 21.6 17.4 84 1.7 SW 6 7 3 4 1018.9 1018.8 0.0
22/02:52am 20.4 21.9 17.6 84 1.7 SW 6 7 3 4 1018.9 1018.8 0.0
22/02:30am 20.7 21.6 17.5 82 2.0 SSW 9 11 5 6 1019.1 1019.0 0.0
22/02:00am 21.0 23.1 17.2 79 2.3 SW 2 7 1 4 1019.2 1019.1 0.0
22/01:30am 20.9 21.9 17.7 82 2.0 SSW 9 13 5 7 1019.5 1019.4 0.0
22/01:00am 20.7 22.1 17.9 84 1.7 SSW 7 9 4 5 1019.9 1019.8 0.0
22/12:30am 20.4 21.8 17.8 85 1.6 SSW 7 9 4 5 1020.1 1020.0 0.0
22/12:00am 20.7 23.3 17.5 82 2.0 CALM 0 0 0 0 1020.2 1020.1 0.0
 
Date/Time
EDT
Temp
°C
App
Temp
°C
Dew
Point
°C
Rel
Hum
%
Delta-T
°C
Wind Press
QNH
hPa
Press
MSL
hPa
Rain since
9am
mm
Dir  Spd
km/h
Gust
km/h
Spd
kts
Gust
kts
21/11:58pm 20.7 23.3 17.5 82 2.0 CALM 0 0 0 0 1020.3 1020.2 0.0
21/11:46pm 20.7 23.6 18.1 85 1.6 CALM 0 0 0 0 1020.5 1020.4 0.0
21/11:30pm 21.0 23.7 17.8 82 2.0 CALM 0 6 0 3 1020.3 1020.2 0.0
21/11:00pm 20.8 22.3 17.6 82 2.0 SW 6 7 3 4 1020.6 1020.5 0.0
21/10:30pm 21.0 23.3 17.6 81 2.1 SW 2 7 1 4 1020.5 1020.4 0.0
21/10:00pm 21.7 23.6 17.7 78 2.5 SW 4 7 2 4 1020.4 1020.3 0.0
21/09:30pm 22.3 24.0 18.1 77 2.6 S 6 7 3 4 1020.3 1020.2 0.0
21/09:00pm 22.3 24.7 17.9 76 2.7 SSW 2 7 1 4 1020.4 1020.3 0.0
21/08:30pm 22.8 25.4 17.5 72 3.3 CALM 0 0 0 0 1020.2 1020.1 0.0
21/08:00pm 23.0 24.6 17.9 73 3.2 S 6 7 3 4 1019.8 1019.7 0.0
21/07:30pm 23.4 24.7 17.2 68 3.8 S 6 7 3 4 1019.5 1019.4 0.0
21/07:00pm 23.8 26.3 17.3 67 4.0 CALM 0 0 0 0 1019.0 1018.9 0.0
21/06:30pm 23.8 24.9 17.1 66 4.1 E 7 13 4 7 1018.8 1018.7 0.0
21/06:00pm 24.2 25.3 17.2 65 4.3 E 7 11 4 6 1018.8 1018.7 0.0
21/05:30pm 24.3 25.0 17.1 64 4.5 NE 9 11 5 6 1018.4 1018.3 0.0
21/05:00pm 24.2 25.5 18.4 70 3.7 NE 9 13 5 7 1018.2 1018.1 0.0
21/04:30pm 24.2 25.2 18.6 71 3.5 NNE 11 15 6 8 1018.1 1018.0 0.0
21/04:00pm 24.0 25.7 18.4 71 3.5 E 7 11 4 6 1018.0 1017.9 0.0
21/03:30pm 23.6 25.0 17.8 70 3.6 SE 7 13 4 7 1017.9 1017.8 0.0
21/03:00pm 24.8 26.4 19.2 71 3.6 ENE 9 13 5 7 1017.9 1017.8 0.0
21/02:30pm 24.8 26.0 19.0 70 3.7 NNE 11 15 6 8 1018.1 1018.0 0.0
21/02:00pm 24.2 24.9 18.8 72 3.4 NNE 13 15 7 8 1018.0 1017.9 0.0
21/01:30pm 24.5 25.0 18.4 69 3.9 NE 13 17 7 9 1018.1 1018.0 0.0
21/01:00pm 25.6 27.3 18.5 65 4.5 SSW 7 11 4 6 1018.5 1018.4 0.0
21/12:30pm 24.6 25.4 18.1 67 4.1 SE 11 17 6 9 1018.6 1018.5 0.0
21/12:00pm 25.2 25.4 17.7 63 4.7 SE 13 19 7 10 1018.8 1018.7 0.0
21/11:30am 26.3 27.4 17.9 60 5.3 SSE 9 13 5 7 1018.9 1018.8 0.0
21/11:00am 26.3 27.2 17.6 58 5.5 ESE 9 15 5 8 1019.0 1018.9 0.0
21/10:30am 25.8 26.9 17.2 59 5.4 SSW 7 9 4 5 1018.9 1018.8 0.0
21/10:00am 25.2 26.2 16.4 58 5.4 S 6 9 3 5 1018.8 1018.7 0.0
21/09:30am 24.6 25.5 16.1 59 5.2 WSW 6 9 3 5 1018.7 1018.6 0.0
21/09:00am 23.1 23.7 15.4 62 4.6 SW 6 9 3 5 1018.3 1018.2 0.0
21/08:30am 21.2 21.4 14.8 67 3.8 SW 7 11 4 6 1018.0 1017.9 0.0
21/08:00am 19.7 19.5 14.7 73 2.9 SW 9 11 5 6 1017.6 1017.5 0.0
21/07:30am 19.0 19.3 15.1 78 2.3 SW 7 9 4 5 1017.2 1017.1 0.0
21/07:00am 18.0 17.8 14.7 81 1.9 SW 9 11 5 6 1016.7 1016.6 0.0
21/06:30am 17.6 17.8 14.1 80 2.0 SSW 6 7 3 4 1016.2 1016.1 0.0
21/06:00am 18.3 17.9 14.2 77 2.4 SSW 9 11 5 6 1015.8 1015.7 0.0
21/05:30am 18.7 18.3 14.2 75 2.6 SSW 9 11 5 6 1015.8 1015.7 0.0
21/05:00am 18.6 18.0 14.5 77 2.4 SSW 11 13 6 7 1015.6 1015.5 0.0
21/04:30am 18.4 18.1 14.3 77 2.4 SSW 9 13 5 7 1015.7 1015.6 0.0
21/04:00am 18.7 18.0 14.4 76 2.5 SSW 11 13 6 7 1015.3 1015.2 0.0
21/03:30am 18.5 18.1 14.2 76 2.5 SSW 9 11 5 6 1015.0 1014.9 0.0
21/03:00am 19.0 18.6 14.1 73 2.8 SSW 9 11 5 6 1015.2 1015.1 0.0
21/02:30am 19.5 18.7 13.9 70 3.2 SSW 11 15 6 8 1015.3 1015.2 0.0
21/02:00am 19.8 19.6 14.6 72 3.0 SSW 9 11 5 6 1015.8 1015.7 0.0
21/01:30am 19.5 19.6 14.5 73 2.9 SW 7 9 4 5 1016.1 1016.0 0.0
21/01:00am 19.4 19.2 14.6 74 2.8 SSW 9 11 5 6 1016.1 1016.0 0.0
21/12:30am 19.4 19.6 14.6 74 2.8 SSW 7 11 4 6 1016.2 1016.1 0.0
21/12:00am 18.8 19.2 14.7 77 2.4 SSW 6 7 3 4 1016.4 1016.3 0.0
 
Date/Time
EDT
Temp
°C
App
Temp
°C
Dew
Point
°C
Rel
Hum
%
Delta-T
°C
Wind Press
QNH
hPa
Press
MSL
hPa
Rain since
9am
mm
Dir  Spd
km/h
Gust
km/h
Spd
kts
Gust
kts
20/11:30pm 19.1 19.2 14.4 74 2.7 SSW 7 9 4 5 1016.2 1016.1 0.0
20/11:00pm 20.2 20.0 14.6 70 3.3 SSW 9 9 5 5 1016.3 1016.2 0.0
20/10:30pm 20.2 20.4 14.8 71 3.2 SSW 7 9 4 5 1016.0 1015.9 0.0
20/10:00pm 20.6 20.0 14.5 68 3.6 SSW 11 11 6 6 1015.7 1015.6 0.0
20/09:30pm 21.0 20.9 14.9 68 3.6 SSW 9 11 5 6 1015.3 1015.2 0.0
20/09:00pm 21.7 21.8 14.4 63 4.3 S 7 9 4 5 1014.8 1014.7 0.0
20/08:30pm 22.9 22.8 13.9 57 5.3 SSE 7 9 4 5 1014.2 1014.1 0.0
20/08:00pm 23.8 23.8 13.6 52 6.0 SE 6 9 3 5 1013.6 1013.5 0.0
20/07:30pm 24.4 24.0 13.0 49 6.6 ESE 7 11 4 6 1013.0 1012.9 0.0
20/07:00pm 25.3 23.4 12.9 46 7.2 ESE 15 20 8 11 1012.3 1012.2 0.0
20/06:30pm 26.4 24.2 13.2 44 7.7 ENE 17 24 9 13 1011.4 1011.3 0.0

Other Formats:

Comma delimited format used in spreadsheet applications
http://www.bom.gov.au/fwo/IDN60801/IDN60801.95570.axf

JavaScript Object Notation format (JSON) in row-major order
http://www.bom.gov.au/fwo/IDN60801/IDN60801.95570.json